.
WxDataArchive / Data Records for 2010-06-14
2010-06-13 June 2010 2010-06-15

Data Records for Monday, 14 June 2010

Time	Temp	Chill	HIndex	Humid	Dewpt	 Wind 	HiWind	WindDir	Rain 	Barom 
-----	----	-----	------	-----	-----	------	------	-------	-----	----- 
00:00	71.1	71.1	71.1	90	68.0	0	0	---	0.00	29.908 
00:05	71.1	71.1	71.1	90	68.0	0	1	292	0.00	29.908 
00:10	71.1	71.1	71.1	90	68.0	0	0	---	0.00	29.908 
00:15	71.1	71.1	71.1	90	68.0	0	0	---	0.00	29.911 
00:20	71.1	71.1	71.1	90	68.0	0	0	---	0.00	29.911 
00:25	71.1	71.1	71.1	90	68.0	0	0	---	0.00	29.911 
00:30	70.9	70.9	70.9	90	67.8	0	0	---	0.00	29.904 
00:35	70.9	70.9	70.9	90	67.8	0	0	---	0.00	29.904 
00:40	70.9	70.9	70.9	90	67.8	0	0	---	0.00	29.904 
00:45	70.8	70.8	70.8	90	67.7	0	0	---	0.00	29.905 
00:50	70.6	70.6	70.6	91	67.8	0	0	---	0.00	29.905 
00:55	70.6	70.6	70.6	91	67.8	0	0	---	0.00	29.905 
01:00	70.4	70.4	70.4	91	67.6	0	0	---	0.00	29.903 
01:05	70.4	70.4	70.4	91	67.6	0	0	---	0.00	29.903 
01:10	70.3	70.3	70.3	92	67.9	0	0	---	0.00	29.903 
01:15	70.3	70.3	70.3	92	67.9	0	0	---	0.00	29.901 
01:20	70.3	70.3	70.3	92	67.9	0	0	---	0.00	29.901 
01:25	70.3	70.3	70.3	92	67.9	0	0	---	0.00	29.901 
01:30	70.3	70.3	70.3	92	67.9	0	0	---	0.00	29.894 
01:35	70.3	70.3	70.3	92	67.9	0	0	---	0.00	29.894 
01:40	70.3	70.3	70.3	92	67.9	0	0	---	0.00	29.894 
01:45	70.3	70.3	70.3	92	67.9	0	0	---	0.00	29.897 
01:50	70.4	70.4	70.4	92	68.0	0	0	---	0.00	29.897 
01:55	70.4	70.4	70.4	93	68.3	0	0	---	0.00	29.897 
02:00	70.6	70.6	70.6	93	68.5	0	0	---	0.00	29.885 
02:05	70.8	70.8	70.8	93	68.7	0	0	---	0.00	29.885 
02:10	70.8	70.8	70.8	93	68.7	0	0	---	0.00	29.885 
02:15	70.9	70.9	70.9	93	68.8	0	0	---	0.00	29.893 
02:20	70.9	70.9	70.9	93	68.8	0	0	---	0.00	29.893 
02:25	71.1	71.1	71.1	93	69.0	0	1	292	0.00	29.893 
02:30	71.3	71.3	71.3	92	68.8	0	1	292	0.00	29.895 
02:35	71.3	71.3	71.3	92	68.8	0	2	292	0.00	29.895 
02:40	71.5	71.5	71.5	91	68.7	0	2	292	0.00	29.895 
02:45	71.8	71.8	71.8	89	68.4	0	1	292	0.00	29.886 
02:50	72.0	72.0	72.0	87	67.9	0	2	292	0.00	29.886 
02:55	72.3	72.3	72.3	85	67.5	0	1	292	0.00	29.886 
03:00	72.5	72.5	72.5	84	67.4	1	2	292	0.00	29.888 
03:05	72.7	72.7	72.7	83	67.2	0	1	292	0.00	29.888 
03:10	72.8	72.8	72.8	83	67.3	0	2	292	0.00	29.888 
03:15	72.8	72.8	72.8	82	67.0	1	3	292	0.00	29.887 
03:20	72.8	72.8	72.8	82	67.0	1	3	292	0.00	29.887 
03:25	72.8	72.8	72.8	83	67.3	1	3	292	0.00	29.887 
03:30	72.8	72.8	72.8	83	67.3	1	3	292	0.00	29.886 
03:35	72.7	72.7	72.7	83	67.2	1	3	292	0.00	29.886 
03:40	72.7	72.7	72.7	83	67.2	0	3	292	0.00	29.886 
03:45	72.7	72.7	72.7	84	67.6	0	2	292	0.00	29.882 
03:50	72.5	72.5	72.5	84	67.4	0	2	292	0.00	29.882 
03:55	72.3	72.3	72.3	84	67.2	0	1	292	0.00	29.882 
04:00	72.3	72.3	72.3	85	67.5	0	1	292	0.00	29.881 
04:05	72.1	72.1	72.1	85	67.3	0	1	292	0.00	29.881 
04:10	72.0	72.0	72.0	86	67.6	0	1	292	0.00	29.881 
04:15	72.0	72.0	72.0	86	67.6	0	1	292	0.00	29.879 
04:20	71.8	71.8	71.8	86	67.4	0	1	292	0.00	29.879 
04:25	71.8	71.8	71.8	87	67.7	0	1	292	0.00	29.879 
04:30	71.8	71.8	71.8	87	67.7	0	1	292	0.00	29.875 
04:35	71.6	71.6	71.6	87	67.5	0	1	292	0.00	29.875 
04:40	71.6	71.6	71.6	87	67.5	0	1	292	0.00	29.875 
04:45	71.6	71.6	71.6	87	67.5	0	1	292	0.00	29.877 
04:50	71.6	71.6	71.6	87	67.5	0	1	292	0.00	29.877 
04:55	71.5	71.5	71.5	87	67.4	0	1	292	0.00	29.877 
05:00	71.3	71.3	71.3	87	67.2	0	1	292	0.00	29.873 
05:05	71.3	71.3	71.3	88	67.6	0	1	292	0.00	29.873 
05:10	71.1	71.1	71.1	88	67.4	0	1	292	0.00	29.873 
05:15	70.9	70.9	70.9	88	67.2	0	3	292	0.00	29.875 
05:20	70.9	70.9	70.9	88	67.2	0	1	292	0.00	29.875 
05:25	70.8	70.8	70.8	89	67.4	0	1	292	0.00	29.875 
05:30	70.8	70.8	70.8	89	67.4	0	2	292	0.00	29.879 
05:35	70.6	70.6	70.6	89	67.2	0	3	292	0.00	29.879 
05:40	70.6	70.6	70.6	89	67.2	1	3	292	0.00	29.879 
05:45	70.6	70.6	70.6	90	67.5	0	2	292	0.00	29.879 
05:50	70.6	70.6	70.6	90	67.5	0	2	292	0.00	29.879 
05:55	70.6	70.6	70.6	90	67.5	0	2	292	0.00	29.879 
06:00	70.6	70.6	70.6	90	67.5	1	3	292	0.00	29.882 
06:05	70.6	70.6	70.6	90	67.5	0	1	292	0.00	29.882 
06:10	70.8	70.8	70.8	90	67.7	0	2	292	0.00	29.882 
06:15	70.8	70.8	70.8	91	68.0	0	1	292	0.00	29.883 
06:20	70.8	70.8	70.8	91	68.0	0	2	292	0.00	29.883 
06:25	70.8	70.8	70.8	91	68.0	0	1	292	0.00	29.883 
06:30	70.8	70.8	70.8	91	68.0	0	1	292	0.00	29.887 
06:35	70.8	70.8	70.8	91	68.0	0	1	292	0.00	29.887 
06:40	70.8	70.8	70.8	91	68.0	0	1	292	0.00	29.887 
06:45	70.8	70.8	70.8	91	68.0	0	1	292	0.00	29.887 
06:50	70.8	70.8	70.8	91	68.0	0	2	292	0.00	29.887 
06:55	70.8	70.8	70.8	91	68.0	0	1	292	0.00	29.887 
07:00	70.8	70.8	70.8	91	68.0	0	2	292	0.00	29.886 
07:05	70.8	70.8	70.8	91	68.0	0	1	292	0.00	29.886 
07:10	70.8	70.8	70.8	91	68.0	1	2	292	0.00	29.886 
07:15	70.9	70.9	70.9	91	68.1	0	2	292	0.00	29.901 
07:20	70.9	70.9	70.9	91	68.1	0	2	292	0.00	29.901 
07:25	70.9	70.9	70.9	91	68.1	0	1	292	0.00	29.901 
07:30	71.1	71.1	71.1	91	68.3	0	1	292	0.00	29.902 
07:35	71.1	71.1	71.1	91	68.3	0	0	---	0.00	29.902 
07:40	71.3	71.3	71.3	91	68.5	0	2	292	0.00	29.902 
07:45	71.3	71.3	71.3	90	68.2	1	2	292	0.00	29.902 
07:50	71.5	71.5	71.5	90	68.4	0	1	292	0.00	29.902 
07:55	71.5	71.5	71.5	90	68.4	0	2	292	0.00	29.902 
08:00	71.6	71.6	71.6	90	68.5	0	2	292	0.00	29.904 
08:05	71.6	71.6	71.6	90	68.5	0	1	292	0.00	29.904 
08:10	71.8	71.8	71.8	89	68.4	0	1	292	0.00	29.904 
08:15	71.8	71.8	71.8	89	68.4	1	2	292	0.00	29.913 
08:20	71.8	71.8	71.8	88	68.0	0	2	292	0.00	29.913 
08:25	72.0	72.0	72.0	88	68.2	0	1	292	0.00	29.913 
08:30	72.0	72.0	72.0	88	68.2	0	1	292	0.00	29.914 
08:35	72.0	72.0	72.0	88	68.2	0	1	292	0.00	29.914 
08:40	72.1	72.1	72.1	88	68.3	0	0	---	0.00	29.914 
08:45	72.3	72.3	72.3	88	68.5	0	0	---	0.00	29.916 
08:50	72.3	72.3	72.3	86	67.9	0	1	292	0.00	29.916 
08:55	72.5	72.5	72.5	86	68.1	0	2	292	0.00	29.916 
09:00	72.5	72.5	72.5	86	68.1	0	2	292	0.00	29.919 
09:05	72.5	72.5	72.5	86	68.1	0	2	292	0.00	29.919 
09:10	72.7	72.7	72.7	86	68.3	0	1	338	0.00	29.919 
09:15	72.7	72.7	72.7	87	68.6	0	1	338	0.00	29.917 
09:20	72.8	72.8	72.8	87	68.7	0	1	338	0.00	29.917 
09:25	72.8	72.8	72.8	87	68.7	0	3	338	0.00	29.917 
09:30	72.8	72.8	72.8	86	68.4	0	1	338	0.00	29.920 
09:35	73.0	73.0	73.0	86	68.6	0	1	338	0.00	29.920 
09:40	73.2	73.2	73.2	86	68.7	0	2	338	0.00	29.920 
09:45	73.3	73.3	73.3	86	68.8	1	3	315	0.00	29.917 
09:50	73.3	73.3	73.3	85	68.5	0	1	315	0.00	29.917 
09:55	73.7	73.7	73.7	85	68.9	0	2	315	0.00	29.917 
10:00	74.4	74.4	74.4	83	68.9	1	3	315	0.00	29.918 
10:05	74.9	74.9	74.9	79	67.9	0	2	315	0.00	29.918 
10:10	75.8	75.8	76.9	78	68.4	0	2	315	0.00	29.918 
10:15	76.7	76.7	78.2	77	68.9	1	4	315	0.00	29.917 
10:20	76.5	76.5	78.0	75	68.0	1	3	315	0.00	29.917 
10:25	76.3	76.3	77.6	77	68.5	0	2	315	0.00	29.917 
10:30	76.3	76.3	77.6	77	68.5	1	3	315	0.00	29.922 
10:35	76.7	76.7	78.2	76	68.5	1	3	315	0.00	29.922 
10:40	76.8	76.8	78.4	75	68.3	1	3	315	0.00	29.922 
10:45	76.8	76.8	78.4	75	68.3	1	3	315	0.00	29.919 
10:50	77.0	77.0	78.6	78	69.6	1	3	315	0.00	29.919 
10:55	77.0	77.0	78.7	76	68.8	0	2	315	0.00	29.919 
11:00	76.7	76.7	78.3	75	68.2	0	1	315	0.00	29.920 
11:05	76.5	76.5	77.9	77	68.7	0	2	315	0.00	29.920 
11:10	76.7	76.7	78.2	78	69.3	0	2	315	0.00	29.920 
11:15	76.7	76.7	78.2	78	69.3	0	2	315	0.00	29.919 
11:20	76.5	76.5	77.9	78	69.1	0	1	315	0.00	29.919 
11:25	77.0	77.0	78.5	81	70.7	0	1	315	0.00	29.919 
11:30	77.7	77.7	79.7	77	69.9	0	2	315	0.00	29.917 
11:35	78.6	78.6	81.0	72	68.8	0	2	338	0.00	29.917 
11:40	79.6	79.6	82.4	71	69.3	0	2	0	0.00	29.917 
11:45	79.2	79.2	81.6	69	68.1	0	0	---	0.00	29.916 
11:50	79.0	79.0	81.6	73	69.6	0	0	---	0.00	29.916 
11:55	79.2	79.2	81.8	71	69.0	0	0	---	0.00	29.916 
12:00	79.4	79.4	81.9	69	68.3	0	2	270	0.00	29.920 
12:05	79.0	79.0	81.4	70	68.4	0	0	---	0.00	29.920 
12:10	78.6	78.6	81.0	72	68.8	0	2	338	0.00	29.920 
12:15	79.0	79.0	81.3	69	67.9	0	2	338	0.00	29.927 
12:20	78.8	78.8	81.2	71	68.6	0	1	338	0.00	29.927 
12:25	78.8	78.8	81.1	70	68.2	0	1	338	0.00	29.927 
12:30	78.8	78.8	81.2	71	68.6	0	1	338	0.00	29.927 
12:35	78.8	78.8	81.2	71	68.6	0	2	338	0.00	29.927 
12:40	78.6	78.6	80.9	71	68.4	0	1	338	0.00	29.927 
12:45	78.5	78.5	80.8	71	68.3	0	2	338	0.00	29.932 
12:50	78.3	78.3	80.4	69	67.3	0	2	338	0.00	29.932 
12:55	78.5	78.5	80.7	69	67.5	0	1	338	0.00	29.932 
13:00	78.6	78.6	80.8	70	68.0	0	1	338	0.00	29.930 
13:05	79.4	79.4	81.9	69	68.3	0	1	338	0.00	29.930 
13:10	79.6	79.6	82.2	69	68.5	0	1	338	0.00	29.930 
13:15	79.9	79.9	82.8	70	69.2	0	0	---	0.00	29.924 
13:20	80.1	80.1	82.7	67	68.1	0	2	338	0.00	29.924 
13:25	80.7	80.7	83.7	67	68.7	1	3	112	0.00	29.924 
13:30	81.1	81.1	84.0	65	68.2	0	2	90	0.00	29.924 
13:35	81.2	81.2	84.5	67	69.2	0	2	90	0.00	29.924 
13:40	81.6	81.6	84.7	65	68.7	0	3	90	0.00	29.924 
13:45	81.6	81.6	84.4	63	67.8	1	3	135	0.00	29.924 
13:50	81.6	81.6	84.6	64	68.2	0	2	135	0.00	29.924 
13:55	81.4	81.4	84.6	66	68.9	0	1	135	0.00	29.924 
14:00	81.6	81.6	84.7	65	68.7	0	1	135	0.00	29.918 
14:05	81.6	81.6	84.7	65	68.7	0	3	292	0.00	29.918 
14:10	81.2	81.2	83.6	62	66.9	0	2	292	0.00	29.918 
14:15	80.9	80.9	83.5	64	67.6	0	0	---	0.00	29.913 
14:20	80.7	80.7	82.9	62	66.4	0	1	292	0.00	29.913 
14:25	81.4	81.4	84.1	63	67.6	0	1	292	0.00	29.913 
14:30	81.8	81.8	84.3	61	67.0	0	3	45	0.00	29.908 
14:35	82.0	82.0	84.8	62	67.7	0	2	45	0.00	29.908 
14:40	81.8	81.8	84.5	62	67.5	0	2	22	0.00	29.908 
14:45	81.8	81.8	84.5	62	67.5	0	1	22	0.00	29.907 
14:50	82.4	82.4	85.0	60	67.1	1	3	22	0.00	29.907 
14:55	83.0	83.0	86.4	62	68.6	1	3	22	0.00	29.907 
15:00	83.4	83.4	87.0	62	69.0	1	4	112	0.00	29.894 
15:05	83.2	83.2	86.5	61	68.3	0	2	112	0.00	29.894 
15:10	82.8	82.8	86.1	62	68.4	0	1	112	0.00	29.894 
15:15	82.4	82.4	85.2	61	67.6	0	3	112	0.00	29.896 
15:20	82.4	82.4	85.2	61	67.6	0	2	112	0.00	29.896 
15:25	82.4	82.4	85.4	62	68.0	0	2	112	0.00	29.896 
15:30	82.2	82.2	85.1	62	67.9	1	2	112	0.00	29.895 
15:35	82.0	82.0	85.4	65	69.0	0	2	112	0.00	29.895 
15:40	81.8	81.8	84.9	64	68.4	0	0	---	0.00	29.895 
15:45	81.4	81.4	84.3	64	68.0	0	0	---	0.00	29.891 
15:50	81.6	81.6	84.2	62	67.3	0	1	112	0.00	29.891 
15:55	81.8	81.8	84.7	63	67.9	0	0	---	0.00	29.891 
16:00	82.8	82.8	86.5	64	69.3	0	1	112	0.00	29.890 
16:05	83.4	83.4	87.0	62	69.0	0	2	112	0.00	29.890 
16:10	84.0	84.0	88.1	62	69.5	0	2	112	0.00	29.890 
16:15	84.1	84.1	87.4	59	68.2	0	2	112	0.00	29.883 
16:20	84.0	84.0	87.3	59	68.1	0	1	112	0.00	29.883 
16:25	83.6	83.6	86.6	59	67.7	0	1	112	0.00	29.883 
16:30	83.8	83.8	87.5	61	68.9	1	3	112	0.00	29.882 
16:35	83.8	83.8	87.2	60	68.4	1	4	90	0.00	29.882 
16:40	83.6	83.6	86.9	60	68.2	1	4	90	0.00	29.882 
16:45	83.4	83.4	86.8	61	68.5	1	4	90	0.00	29.878 
16:50	83.4	83.4	87.0	62	69.0	0	1	90	0.00	29.878 
16:55	83.8	83.8	88.0	63	69.8	0	2	90	0.00	29.878 
17:00	84.1	84.1	87.7	60	68.7	0	3	90	0.00	29.872 
17:05	84.0	84.0	87.3	59	68.1	0	2	90	0.00	29.872 
17:10	83.6	83.6	86.4	58	67.2	1	4	90	0.00	29.872 
17:15	83.4	83.4	87.0	62	69.0	0	3	90	0.00	29.869 
17:20	83.2	83.2	86.5	61	68.3	0	1	90	0.00	29.869 
17:25	83.2	83.2	86.7	62	68.8	0	1	90	0.00	29.869 
17:30	83.0	83.0	86.4	62	68.6	0	1	90	0.00	29.864 
17:35	83.0	83.0	85.9	60	67.7	1	3	90	0.00	29.864 
17:40	82.8	82.8	86.1	62	68.4	1	3	90	0.00	29.864 
17:45	82.8	82.8	85.6	60	67.5	0	3	112	0.00	29.858 
17:50	82.8	82.8	86.1	62	68.4	0	1	112	0.00	29.858 
17:55	82.4	82.4	85.4	62	68.0	1	3	112	0.00	29.858 
18:00	82.0	82.0	85.0	63	68.1	1	4	112	0.00	29.851 
18:05	81.8	81.8	84.9	64	68.4	0	2	112	0.00	29.851 
18:10	81.8	81.8	84.7	63	67.9	1	2	112	0.00	29.851 
18:15	81.6	81.6	84.6	64	68.2	1	2	112	0.00	29.856 
18:20	81.4	81.4	84.3	64	68.0	1	4	112	0.00	29.856 
18:25	81.4	81.4	84.4	65	68.5	0	2	112	0.00	29.856 
18:30	81.1	81.1	84.1	66	68.6	0	2	112	0.00	29.856 
18:35	80.9	80.9	83.8	66	68.4	0	0	---	0.00	29.856 
18:40	80.5	80.5	83.2	66	68.1	0	0	---	0.00	29.856 
18:45	80.3	80.3	83.3	69	69.2	0	0	---	0.00	29.861 
18:50	79.8	79.8	82.9	72	69.9	0	0	---	0.00	29.861 
18:55	79.0	79.0	81.9	76	70.8	0	0	---	0.02	29.861 
19:00	78.1	78.1	80.4	78	70.7	0	0	---	0.03	29.867 
19:05	77.2	77.2	78.9	81	70.9	0	0	---	0.00	29.867 
19:10	76.7	76.7	77.9	83	71.1	0	0	---	0.00	29.867 
19:15	76.1	76.1	76.7	85	71.2	0	0	---	0.00	29.873 
19:20	75.8	75.8	76.0	87	71.6	0	0	---	0.03	29.873 
19:25	75.4	75.4	75.1	88	71.6	0	0	---	0.02	29.873 
19:30	75.3	75.3	74.8	89	71.8	0	0	---	0.00	29.868 
19:35	74.9	74.9	74.9	89	71.4	0	0	---	0.00	29.868 
19:40	74.9	74.9	74.9	90	71.8	0	1	112	0.00	29.868 
19:45	74.9	74.9	74.9	90	71.8	0	0	---	0.00	29.882 
19:50	74.7	74.7	74.7	90	71.6	0	1	112	0.00	29.882 
19:55	74.6	74.6	74.6	90	71.5	0	0	---	0.00	29.882 
20:00	74.4	74.4	74.4	90	71.3	0	0	---	0.00	29.875 
20:05	74.2	74.2	74.2	90	71.1	0	0	---	0.00	29.875 
20:10	74.2	74.2	74.2	90	71.1	0	0	---	0.00	29.875 
20:15	74.0	74.0	74.0	91	71.2	0	0	---	0.00	29.876 
20:20	74.0	74.0	74.0	91	71.2	0	0	---	0.00	29.876 
20:25	74.0	74.0	74.0	91	71.2	0	3	112	0.00	29.876 
20:30	74.0	74.0	74.0	91	71.2	0	2	112	0.00	29.874 
20:35	74.0	74.0	74.0	92	71.5	0	3	112	0.00	29.874 
20:40	74.0	74.0	74.0	92	71.5	0	1	112	0.00	29.874 
20:45	74.0	74.0	74.0	92	71.5	1	4	135	0.01	29.873 
20:50	73.9	73.9	73.9	92	71.4	1	3	135	0.00	29.873 
20:55	73.9	73.9	73.9	92	71.4	1	3	90	0.00	29.873 
21:00	73.9	73.9	73.9	92	71.4	1	3	90	0.00	29.867 
21:05	73.7	73.7	73.7	92	71.2	2	4	90	0.00	29.867 
21:10	73.5	73.5	73.5	92	71.0	1	4	112	0.00	29.867 
21:15	73.5	73.5	73.5	92	71.0	1	4	112	0.00	29.858 
21:20	73.3	73.3	73.3	93	71.1	1	4	90	0.00	29.858 
21:25	73.2	73.2	73.2	92	70.7	1	4	90	0.00	29.858 
21:30	73.2	73.2	73.2	92	70.7	1	3	90	0.00	29.883 
21:35	73.2	73.2	73.2	92	70.7	1	3	90	0.00	29.883 
21:40	73.2	73.2	73.2	92	70.7	1	2	90	0.00	29.883 
21:45	73.0	73.0	73.0	93	70.8	1	3	90	0.00	29.881 
21:50	73.0	73.0	73.0	93	70.8	1	4	68	0.00	29.881 
21:55	73.0	73.0	73.0	93	70.8	0	3	68	0.00	29.881 
22:00	73.0	73.0	73.0	93	70.8	0	2	68	0.00	29.882 
22:05	73.0	73.0	73.0	93	70.8	0	2	68	0.00	29.882 
22:10	73.0	73.0	73.0	93	70.8	0	0	---	0.00	29.882 
22:15	73.0	73.0	73.0	93	70.8	0	1	68	0.00	29.893 
22:20	73.0	73.0	73.0	93	70.8	0	2	68	0.00	29.893 
22:25	73.0	73.0	73.0	93	70.8	1	3	68	0.00	29.893 
22:30	72.8	72.8	72.8	93	70.7	1	2	68	0.00	29.883 
22:35	72.8	72.8	72.8	93	70.7	1	3	68	0.00	29.883 
22:40	72.8	72.8	72.8	93	70.7	0	2	68	0.00	29.883 
22:45	72.7	72.7	72.7	93	70.6	0	3	68	0.01	29.892 
22:50	72.7	72.7	72.7	93	70.6	0	2	68	0.00	29.892 
22:55	72.7	72.7	72.7	94	70.9	0	2	68	0.00	29.892 
23:00	72.7	72.7	72.7	94	70.9	1	4	68	0.00	29.890 
23:05	72.7	72.7	72.7	94	70.9	0	2	68	0.00	29.890 
23:10	72.7	72.7	72.7	94	70.9	0	1	68	0.00	29.890 
23:15	72.5	72.5	72.5	94	70.7	1	3	68	0.00	29.893 
23:20	72.5	72.5	72.5	94	70.7	1	3	68	0.00	29.893 
23:25	72.5	72.5	72.5	94	70.7	1	3	68	0.00	29.893 
23:30	72.5	72.5	72.5	94	70.7	0	1	68	0.00	29.897 
23:35	72.3	72.3	72.3	94	70.5	0	2	68	0.00	29.897 
23:40	72.3	72.3	72.3	94	70.5	1	3	68	0.00	29.897 
23:45	72.3	72.3	72.3	94	70.5	1	3	68	0.00	29.899 
23:50	72.3	72.3	72.3	94	70.5	1	4	68	0.00	29.899 
23:55	72.3	72.3	72.3	94	70.5	1	3	68	0.00	29.899 

CoCoRaHS
IN-AL-39
A2 Web Hosting
Creative Commons License
GoDaddy
search engine by freefind advanced

loaded 2018-11-17 19:13:25 • last modified 2010-11-18 10:43:29
Privacy PolicyDisclaimer
• wx.awcolley.com is powered by PmWiki v.2002016 •
• all content (unless otherwise noted) © 2018 A W Colley